Bakertown, MI

5:47 PM EST on December 06, 2016 (GMT -0500)
Life Action Camp | | Change Station

Elev 755 ft 41.83 °N, 86.42 °W | Updated 15 seconds ago

Scattered Clouds
Scattered Clouds
38.5 °F
Feels Like 31 °F
N
13.0
Wind Variable Wind from South
Gusts 13.0 mph

Today
High -- | Low -- °F
--% Chance of Precip.
Yesterday
High -- | Low -- °F
Precip. -- in
Pressure 29.80 in
Visibility 10.0 miles
Clouds Few 1700 ft
Scattered Clouds 2200 ft
Windchill 31 °F
Dew Point 25 °F
Humidity 57%
Rainfall 0.02 in
Snow Depth Not available.
7:59 AM 5:14 PM
Waxing Crescent, 46% visible
SPECI KSBN 062238Z 28008KT 10SM FEW017 SCT022 02/00 A2980 RMK AO2 T00220000
Pressure 29.80 in
Visibility 10.0 miles
Clouds Few 1700 ft
Scattered Clouds 2200 ft
Windchill 31 °F
Dew Point 25 °F
Humidity 57%
Rainfall 0.02 in
Snow Depth Not available.
7:59 AM 5:14 PM
Waxing Crescent, 46% visible
SPECI KSBN 062238Z 28008KT 10SM FEW017 SCT022 02/00 A2980 RMK AO2 T00220000

10-Day Weather Forecast

Almanac

Astronomy

Dec. 06, 2016 Rise Set
Actual Time
Civil Twilight
Nautical Twilight
Astronomical Twilight
Moon
Length of Visible Light
Length of Day
Tomorrow will be .
, % of the Moon is Illuminated

Today's Extremes

State Highs State Lows

Community

WunderPhotos

Upload Photos

1,956,042 photos uploaded!

WunderBlog® & News

Nearby

Air Quality

  Air Quality AQ Index Pollutant
Not available.

Snow Depth

Station Depth Elevation

Earthquake Activity

City Distance Mag. Time & Date
Minimum magnitude displayed is 2.5.

Coastal Water Temperatures

Place Temperature

Stations

Nearby Weather Stations

Station Location Temp. Windchill Dew Point Humidity Wind Precip. Elev Updated Type
                   

Watches & Warnings

There are currently no watches in effect.